createdAt,value
2022-08-26T00:00:42.205Z,100158.75
2022-08-26T00:03:45.295Z,100146.97
2022-08-26T00:06:50.711Z,100142.31
2022-08-26T00:09:56.878Z,100138.00
2022-08-26T00:13:00.272Z,100141.03
2022-08-26T00:16:05.483Z,100144.00
2022-08-26T00:19:12.600Z,100131.84
2022-08-26T00:22:21.503Z,100140.56
2022-08-26T00:25:27.908Z,100143.00
2022-08-26T00:28:33.349Z,100140.62
2022-08-26T00:31:36.292Z,100144.91
2022-08-26T00:34:40.070Z,100141.59
2022-08-26T00:37:47.714Z,100149.03
2022-08-26T00:40:54.144Z,100141.94
2022-08-26T00:43:57.425Z,100139.09
2022-08-26T00:47:05.733Z,100137.06
2022-08-26T00:50:14.800Z,100138.38
2022-08-26T00:53:24.011Z,100135.06
2022-08-26T00:56:38.000Z,100138.28
2022-08-26T00:59:42.367Z,100139.59
2022-08-26T01:02:47.951Z,100143.84
2022-08-26T01:05:57.232Z,100139.78
2022-08-26T01:09:00.401Z,100136.81
2022-08-26T01:12:03.929Z,100140.00
2022-08-26T01:15:10.443Z,100132.25
2022-08-26T01:18:15.145Z,100134.81
2022-08-26T01:21:30.299Z,100134.81
2022-08-26T01:24:33.135Z,100132.31
2022-08-26T01:27:38.795Z,100130.41
2022-08-26T01:30:44.190Z,100122.97
2022-08-26T01:34:02.171Z,100125.19
2022-08-26T01:37:13.691Z,100128.84
2022-08-26T01:40:25.691Z,100129.03
2022-08-26T01:43:31.553Z,100133.28
2022-08-26T01:46:34.728Z,100139.31
2022-08-26T01:49:43.816Z,100133.78
2022-08-26T01:52:54.371Z,100123.53
2022-08-26T01:56:02.424Z,100125.75
2022-08-26T01:59:16.486Z,100128.91
2022-08-26T02:02:21.157Z,100134.00
2022-08-26T02:05:58.483Z,100126.88
2022-08-26T02:09:02.429Z,100126.09
2022-08-26T02:12:06.079Z,100128.97
2022-08-26T02:15:13.720Z,100125.28
2022-08-26T02:18:17.097Z,100128.91
2022-08-26T02:21:22.227Z,100124.97
2022-08-26T02:24:55.161Z,100126.09
2022-08-26T02:27:58.205Z,100122.94
2022-08-26T02:31:02.660Z,100121.97
2022-08-26T02:34:15.587Z,100122.94
2022-08-26T02:37:19.175Z,100118.69
2022-08-26T02:40:31.150Z,100119.78
2022-08-26T02:43:34.323Z,100123.09
2022-08-26T02:46:38.171Z,100124.53
2022-08-26T02:50:06.363Z,100126.75
2022-08-26T02:53:10.423Z,100123.41
2022-08-26T02:56:13.994Z,100122.47
2022-08-26T02:59:19.061Z,100124.38
2022-08-26T03:02:22.334Z,100125.66
2022-08-26T03:05:25.494Z,100121.41
2022-08-26T03:08:28.585Z,100127.41
2022-08-26T03:11:33.223Z,100130.69
2022-08-26T03:14:36.399Z,100120.12
2022-08-26T03:17:39.683Z,100123.13
2022-08-26T03:20:43.127Z,100122.03
2022-08-26T03:23:47.031Z,100109.06
2022-08-26T03:26:52.962Z,100105.56
2022-08-26T03:30:16.936Z,100110.31
2022-08-26T03:33:22.899Z,100106.38
2022-08-26T03:36:28.699Z,100108.41
2022-08-26T03:39:32.622Z,100115.09
2022-08-26T03:42:36.836Z,100109.53
2022-08-26T03:45:40.761Z,100104.66
2022-08-26T03:48:46.339Z,100107.63
2022-08-26T03:51:51.941Z,100109.06
2022-08-26T03:54:54.649Z,100112.38
2022-08-26T03:57:58.099Z,100116.66
2022-08-26T04:01:00.626Z,100107.81
2022-08-26T04:04:06.797Z,100110.00
2022-08-26T04:07:12.475Z,100102.59
2022-08-26T04:10:20.070Z,100108.25
2022-08-26T04:13:25.678Z,100111.28
2022-08-26T04:16:29.549Z,100107.47
2022-08-26T04:19:33.095Z,100106.84
2022-08-26T04:22:36.572Z,100103.06
2022-08-26T04:25:40.568Z,100102.44
2022-08-26T04:28:43.559Z,100107.16
2022-08-26T04:31:50.053Z,100107.34
2022-08-26T04:35:00.834Z,100110.03
2022-08-26T04:38:05.879Z,100108.28
2022-08-26T04:41:14.878Z,100104.81
2022-08-26T04:44:20.759Z,100105.09
2022-08-26T04:47:28.062Z,100105.25
2022-08-26T04:50:35.060Z,100109.03
2022-08-26T04:53:38.711Z,100110.09
2022-08-26T04:56:47.599Z,100110.94
2022-08-26T04:59:51.164Z,100117.22
2022-08-26T05:02:56.430Z,100109.91
2022-08-26T05:06:05.274Z,100110.22
2022-08-26T05:09:08.017Z,100113.66
2022-08-26T05:12:31.502Z,100117.22
2022-08-26T05:15:35.901Z,100113.84
2022-08-26T05:18:43.606Z,100116.75
2022-08-26T05:21:48.489Z,100113.88
2022-08-26T05:24:51.270Z,100115.22
2022-08-26T05:27:53.930Z,100114.59
2022-08-26T05:30:59.904Z,100119.88
2022-08-26T05:34:04.789Z,100114.87
2022-08-26T05:37:07.879Z,100126.19
2022-08-26T05:40:13.770Z,100123.78
2022-08-26T05:43:17.239Z,100120.31
2022-08-26T05:46:23.644Z,100119.09
2022-08-26T05:49:29.851Z,100124.31
2022-08-26T05:52:33.907Z,100123.91
2022-08-26T05:56:04.524Z,100120.31
2022-08-26T05:59:11.665Z,100127.28
2022-08-26T06:02:17.635Z,100142.03
2022-08-26T06:05:30.253Z,100136.97
2022-08-26T06:08:35.136Z,100138.53
2022-08-26T06:11:39.330Z,100139.56
2022-08-26T06:14:42.799Z,100147.00
2022-08-26T06:17:49.251Z,100145.94
2022-08-26T06:20:56.889Z,100137.34
2022-08-26T06:24:26.941Z,100136.06
2022-08-26T06:27:32.982Z,100143.53
2022-08-26T06:30:40.731Z,100136.50
2022-08-26T06:33:44.976Z,100140.06
2022-08-26T06:37:09.064Z,100142.44
2022-08-26T06:40:47.731Z,100140.47
2022-08-26T06:44:13.599Z,100142.47
2022-08-26T06:47:47.720Z,100139.69
2022-08-26T06:51:35.658Z,100144.91
2022-08-26T06:55:03.474Z,100139.81
2022-08-26T06:58:14.563Z,100143.19
2022-08-26T07:01:28.644Z,100139.56
2022-08-26T07:04:33.756Z,100143.19
2022-08-26T07:07:38.789Z,100145.03
2022-08-26T07:10:43.207Z,100139.31
2022-08-26T07:13:50.572Z,100143.16
2022-08-26T07:17:12.175Z,100145.03
2022-08-26T07:20:22.775Z,100135.94
2022-08-26T07:23:39.350Z,100136.47
2022-08-26T07:26:43.873Z,100137.22
2022-08-26T07:29:48.698Z,100137.38
2022-08-26T07:32:59.203Z,100135.50
2022-08-26T07:36:05.852Z,100133.41
2022-08-26T07:39:51.681Z,100131.47
2022-08-26T07:43:17.958Z,100136.50
2022-08-26T07:46:53.557Z,100138.28
2022-08-26T07:50:49.141Z,100134.03
2022-08-26T07:54:26.882Z,100137.34
2022-08-26T07:57:53.357Z,100135.97
2022-08-26T08:01:40.351Z,100132.25
2022-08-26T08:05:27.310Z,100132.41
2022-08-26T08:08:42.571Z,100131.91
2022-08-26T08:11:46.751Z,100128.09
2022-08-26T08:14:53.162Z,100127.78
2022-08-26T08:18:01.271Z,100122.72
2022-08-26T08:21:21.250Z,100128.97
2022-08-26T08:24:27.660Z,100121.06
2022-08-26T08:27:34.172Z,100117.94
2022-08-26T08:30:40.754Z,100113.00
2022-08-26T08:33:43.620Z,100114.06
2022-08-26T08:36:50.411Z,100115.94
2022-08-26T08:39:58.968Z,100107.69
2022-08-26T08:43:15.504Z,100106.66
2022-08-26T08:46:19.653Z,100114.84
2022-08-26T08:49:26.166Z,100108.94
2022-08-26T08:52:37.065Z,100109.19
2022-08-26T08:56:14.711Z,100108.47
2022-08-26T08:59:20.447Z,100110.53
2022-08-26T09:02:35.932Z,100105.09
2022-08-26T09:05:48.722Z,100103.47
2022-08-26T09:09:38.391Z,100097.75
2022-08-26T09:12:46.235Z,100094.09
2022-08-26T09:15:59.417Z,100094.53
2022-08-26T09:19:20.267Z,100090.22
2022-08-26T09:22:36.267Z,100087.84
2022-08-26T09:29:04.957Z,100083.28
2022-08-26T09:32:21.357Z,100071.56
2022-08-26T09:35:28.951Z,100084.69
2022-08-26T09:38:46.679Z,100073.91
2022-08-26T09:42:26.296Z,100074.69
2022-08-26T09:45:29.931Z,100078.22
2022-08-26T09:48:40.558Z,100074.81
2022-08-26T09:51:44.602Z,100075.16
2022-08-26T09:55:14.045Z,100070.69
2022-08-26T09:58:39.583Z,100070.03
2022-08-26T10:01:45.524Z,100069.41
2022-08-26T10:04:57.589Z,100065.69
2022-08-26T10:08:20.563Z,100065.44
2022-08-26T10:11:32.015Z,100055.31
2022-08-26T10:14:48.043Z,100060.00
2022-08-26T10:18:06.743Z,100063.81
2022-08-26T10:21:23.845Z,100055.44
2022-08-26T10:24:46.376Z,100046.31
2022-08-26T10:28:00.990Z,100060.50
2022-08-26T10:31:16.125Z,100052.09
2022-08-26T10:34:21.144Z,100052.38
2022-08-26T10:37:33.686Z,100047.94
2022-08-26T10:40:55.109Z,100040.63
2022-08-26T10:44:22.074Z,100037.69
2022-08-26T10:47:45.186Z,100031.94
2022-08-26T10:51:03.299Z,100036.28
2022-08-26T10:54:15.758Z,100031.44
2022-08-26T10:57:33.742Z,100029.53
2022-08-26T11:01:10.514Z,100028.03
2022-08-26T11:04:42.362Z,100020.97
2022-08-26T11:07:56.229Z,100027.31
2022-08-26T11:11:03.063Z,100015.66
2022-08-26T11:14:28.376Z,100012.00
2022-08-26T11:17:57.950Z,100013.09
2022-08-26T11:21:44.255Z,100008.97
2022-08-26T11:24:53.858Z,100001.47
2022-08-26T11:28:08.656Z,100002.06
2022-08-26T11:31:26.061Z,100001.22
2022-08-26T11:34:53.298Z,99996.47
2022-08-26T11:38:04.245Z,99997.50
2022-08-26T11:41:17.657Z,99992.81
2022-08-26T11:44:27.566Z,99995.16
2022-08-26T11:47:32.075Z,99983.88
2022-08-26T11:50:35.216Z,99980.88
2022-08-26T11:53:47.207Z,99979.91
2022-08-26T11:56:54.855Z,99975.31
2022-08-26T11:59:57.899Z,99969.84
2022-08-26T12:03:07.308Z,99973.66
2022-08-26T12:06:22.275Z,99965.28
2022-08-26T12:09:33.086Z,99961.13
2022-08-26T12:13:05.699Z,99960.56
2022-08-26T12:16:08.902Z,99960.03
2022-08-26T12:19:27.479Z,99948.72
2022-08-26T12:22:38.433Z,99944.50
2022-08-26T12:25:43.281Z,99939.91
2022-08-26T12:29:19.998Z,99941.41
2022-08-26T12:32:29.238Z,99940.47
2022-08-26T12:35:37.023Z,99934.97
2022-08-26T12:38:41.356Z,99921.47
2022-08-26T12:41:51.325Z,99922.59
2022-08-26T12:45:08.585Z,99923.97
2022-08-26T12:48:38.707Z,99913.16
2022-08-26T12:52:02.548Z,99914.31
2022-08-26T12:55:25.843Z,99906.22
2022-08-26T12:58:40.458Z,99910.78
2022-08-26T13:01:47.202Z,99905.25
2022-08-26T13:05:00.732Z,99900.41
2022-08-26T13:08:26.690Z,99902.44
2022-08-26T13:11:35.523Z,99885.53
2022-08-26T13:14:40.603Z,99884.28
2022-08-26T13:17:43.593Z,99889.63
2022-08-26T13:20:48.712Z,99883.62
2022-08-26T13:23:57.089Z,99866.19
2022-08-26T13:27:24.520Z,99868.44
2022-08-26T13:30:37.048Z,99865.38
2022-08-26T13:33:45.504Z,99861.94
2022-08-26T13:37:08.512Z,99857.81
2022-08-26T13:40:13.393Z,99855.81
2022-08-26T13:43:28.439Z,99846.94
2022-08-26T13:46:35.359Z,99850.59
2022-08-26T13:49:51.891Z,99845.22
2022-08-26T13:53:02.257Z,99844.62
2022-08-26T13:56:46.247Z,99846.28
2022-08-26T14:00:02.422Z,99834.22
2022-08-26T14:03:24.899Z,99839.03
2022-08-26T14:06:35.017Z,99833.19
2022-08-26T14:09:50.276Z,99839.94
2022-08-26T14:12:54.069Z,99838.31
2022-08-26T14:20:32.941Z,99830.00
2022-08-26T14:23:37.936Z,99835.13
2022-08-26T14:26:48.736Z,99835.34
2022-08-26T14:29:57.774Z,99841.37
2022-08-26T14:33:24.386Z,99850.41
2022-08-26T14:36:42.284Z,99842.59
2022-08-26T14:39:52.178Z,99844.97
2022-08-26T14:42:58.681Z,99850.53
2022-08-26T14:46:32.375Z,99847.91
2022-08-26T14:49:39.276Z,99852.97
2022-08-26T14:53:04.799Z,99842.16
2022-08-26T14:56:30.953Z,99850.59
2022-08-26T15:00:01.458Z,99833.28
2022-08-26T15:06:38.235Z,99827.09
2022-08-26T15:09:56.707Z,99835.66
2022-08-26T15:13:11.363Z,99840.56
2022-08-26T15:16:39.244Z,99828.69
2022-08-26T15:20:09.775Z,99818.84
2022-08-26T15:23:36.722Z,99823.75
2022-08-26T15:27:02.793Z,99826.59
2022-08-26T15:30:19.361Z,99822.81
2022-08-26T15:33:45.861Z,99817.31
2022-08-26T15:37:24.731Z,99812.03
2022-08-26T15:40:51.905Z,99813.88
2022-08-26T15:44:12.980Z,99807.69
2022-08-26T15:47:32.416Z,99811.81
2022-08-26T15:51:25.565Z,99810.25
2022-08-26T15:54:45.964Z,99805.28
2022-08-26T15:57:53.564Z,99801.59
2022-08-26T16:01:10.892Z,99797.06
2022-08-26T16:04:39.949Z,99799.88
2022-08-26T16:07:44.644Z,99798.56
2022-08-26T16:11:03.347Z,99796.31
2022-08-26T16:14:10.579Z,99797.19
2022-08-26T16:17:14.948Z,99792.56
2022-08-26T16:20:33.981Z,99790.41
2022-08-26T16:23:39.114Z,99788.16
2022-08-26T16:26:55.167Z,99781.97
2022-08-26T16:29:59.316Z,99787.56
2022-08-26T16:33:03.029Z,99790.81
2022-08-26T16:36:09.178Z,99791.66
2022-08-26T16:39:44.897Z,99793.31
2022-08-26T16:43:02.931Z,99787.22
2022-08-26T16:46:29.833Z,99794.66
2022-08-26T16:49:40.677Z,99795.13
2022-08-26T16:52:55.580Z,99799.06
2022-08-26T16:55:59.239Z,99801.78
2022-08-26T16:59:06.343Z,99800.63
2022-08-26T17:02:11.926Z,99799.06
2022-08-26T17:05:18.977Z,99796.34
2022-08-26T17:08:28.688Z,99800.66
2022-08-26T17:11:31.881Z,99802.59
2022-08-26T17:14:37.978Z,99798.72
2022-08-26T17:17:41.603Z,99794.03
2022-08-26T17:20:45.651Z,99790.09
2022-08-26T17:23:52.622Z,99787.75
2022-08-26T17:26:56.276Z,99788.16
2022-08-26T17:29:59.576Z,99796.31
2022-08-26T17:33:10.891Z,99800.94
2022-08-26T17:36:15.842Z,99804.00
2022-08-26T17:39:22.380Z,99804.72
2022-08-26T17:42:31.521Z,99800.00
2022-08-26T17:45:39.417Z,99804.25
2022-08-26T17:48:48.852Z,99801.03
2022-08-26T17:51:52.087Z,99807.25
2022-08-26T17:54:56.443Z,99801.34
2022-08-26T17:58:23.330Z,99804.06
2022-08-26T18:01:31.929Z,99802.78
2022-08-26T18:04:41.802Z,99795.75
2022-08-26T18:07:46.755Z,99808.47
2022-08-26T18:10:59.368Z,99805.56
2022-08-26T18:14:01.922Z,99814.31
2022-08-26T18:17:08.435Z,99809.47
2022-08-26T18:20:19.609Z,99809.31
2022-08-26T18:23:28.689Z,99802.13
2022-08-26T18:26:56.248Z,99811.22
2022-08-26T18:30:23.391Z,99809.84
2022-08-26T18:33:27.537Z,99806.94
2022-08-26T18:36:33.956Z,99809.03
2022-08-26T18:39:36.950Z,99810.34
2022-08-26T18:42:42.277Z,99809.34
2022-08-26T18:45:46.558Z,99811.50
2022-08-26T18:48:57.086Z,99806.97
2022-08-26T18:52:24.928Z,99814.91
2022-08-26T18:55:40.377Z,99811.59
2022-08-26T18:58:45.778Z,99809.06
2022-08-26T19:01:50.748Z,99813.47
2022-08-26T19:04:53.762Z,99808.75
2022-08-26T19:08:08.533Z,99816.31
2022-08-26T19:11:15.621Z,99816.47
2022-08-26T19:14:21.059Z,99826.06
2022-08-26T19:17:24.149Z,99823.63
2022-08-26T19:20:30.285Z,99830.41
2022-08-26T19:23:34.256Z,99829.03
2022-08-26T19:26:40.747Z,99829.25
2022-08-26T19:30:07.221Z,99834.06
2022-08-26T19:33:30.436Z,99829.56
2022-08-26T19:36:48.356Z,99836.00
2022-08-26T19:39:54.350Z,99828.09
2022-08-26T19:42:59.953Z,99831.06
2022-08-26T19:46:30.703Z,99847.91
2022-08-26T19:50:11.744Z,99842.69
2022-08-26T19:53:19.820Z,99850.34
2022-08-26T19:56:28.421Z,99851.06
2022-08-26T19:59:36.336Z,99846.59
2022-08-26T20:02:44.276Z,99849.31
2022-08-26T20:05:47.778Z,99852.25
2022-08-26T20:08:52.120Z,99853.69
2022-08-26T20:12:02.532Z,99858.28
2022-08-26T20:15:09.977Z,99859.25
2022-08-26T20:18:35.819Z,99864.22
2022-08-26T20:21:51.058Z,99865.91
2022-08-26T20:24:57.318Z,99860.34
2022-08-26T20:28:00.924Z,99867.56
2022-08-26T20:31:04.716Z,99880.88
2022-08-26T20:34:09.769Z,99870.78
2022-08-26T20:37:13.204Z,99884.28
2022-08-26T20:40:15.993Z,99882.69
2022-08-26T20:43:28.683Z,99882.34
2022-08-26T20:46:37.845Z,99888.00
2022-08-26T20:50:09.835Z,99884.75
2022-08-26T20:53:14.601Z,99877.78
2022-08-26T20:56:22.585Z,99890.94
2022-08-26T20:59:26.177Z,99883.88
2022-08-26T21:02:35.394Z,99891.78
2022-08-26T21:05:40.544Z,99886.63
2022-08-26T21:09:11.406Z,99888.91
2022-08-26T21:12:28.893Z,99901.75
2022-08-26T21:15:32.030Z,99905.47
2022-08-26T21:18:36.951Z,99898.28
2022-08-26T21:21:41.102Z,99903.09
2022-08-26T21:24:46.715Z,99904.47
2022-08-26T21:27:49.499Z,99899.75
2022-08-26T21:30:52.355Z,99903.22
2022-08-26T21:33:56.791Z,99899.41
2022-08-26T21:37:00.532Z,99899.75
2022-08-26T21:40:05.421Z,99901.44
2022-08-26T21:43:08.334Z,99904.66
2022-08-26T21:46:22.604Z,99903.56
2022-08-26T21:49:29.637Z,99898.16
2022-08-26T21:52:32.568Z,99898.16
2022-08-26T21:55:36.370Z,99900.19
2022-08-26T21:58:46.651Z,99897.03
2022-08-26T22:01:50.407Z,99905.78
2022-08-26T22:04:56.443Z,99892.91
2022-08-26T22:08:01.302Z,99900.09
2022-08-26T22:11:05.291Z,99894.50
2022-08-26T22:14:08.719Z,99891.22
2022-08-26T22:17:14.235Z,99899.66
2022-08-26T22:20:19.219Z,99895.28
2022-08-26T22:23:25.258Z,99897.44
2022-08-26T22:26:31.198Z,99903.16
2022-08-26T22:29:34.481Z,99894.84
2022-08-26T22:32:39.617Z,99898.69
2022-08-26T22:35:48.704Z,99896.88
2022-08-26T22:38:56.304Z,99900.47
2022-08-26T22:42:19.477Z,99891.50
2022-08-26T22:45:22.824Z,99889.69
2022-08-26T22:48:26.876Z,99887.66
2022-08-26T22:51:29.996Z,99887.19
2022-08-26T22:54:35.107Z,99890.00
2022-08-26T22:57:38.181Z,99892.13
2022-08-26T23:00:43.361Z,99885.63
2022-08-26T23:03:46.629Z,99883.03
2022-08-26T23:06:49.842Z,99884.25
2022-08-26T23:09:54.586Z,99877.16
2022-08-26T23:12:59.992Z,99879.97
2022-08-26T23:16:07.346Z,99875.59
2022-08-26T23:19:12.867Z,99872.78
2022-08-26T23:22:17.908Z,99870.94
2022-08-26T23:25:21.572Z,99870.41
2022-08-26T23:28:27.876Z,99876.78
2022-08-26T23:31:34.030Z,99868.78
2022-08-26T23:34:55.660Z,99858.00
2022-08-26T23:38:02.281Z,99865.06
2022-08-26T23:41:05.861Z,99863.28
2022-08-26T23:44:09.094Z,99853.78
2022-08-26T23:47:13.704Z,99858.59
2022-08-26T23:50:47.662Z,99854.34
2022-08-26T23:53:51.172Z,99849.97
2022-08-26T23:57:20.076Z,99848.59
